Time;durP1;ratioP1;P1;durP2;ratioP2;P2;SDS_P1;SDS_P2;PMS_P1;PMS_P2;Temp;Humidity;BMP_temperature;BMP_pressure;BME280_temperature;BME280_humidity;BME280_pressure;Samples;Min_cycle;Max_cycle;Signal;HPM_P1;HPM_P2
2021/06/04 00:01:07;;;;;;;16.97;12.77;;;11.40;99.00;;;;;;4997977;28;20199;-82
2021/06/04 00:03:35;;;;;;;16.60;13.07;;;11.50;99.50;;;;;;4991976;28;20942;-82
2021/06/04 00:06:06;;;;;;;18.17;13.13;;;11.60;98.60;;;;;;4988988;28;20196;-82
2021/06/04 00:08:34;;;;;;;17.63;12.83;;;11.50;98.30;;;;;;4990861;28;20274;-84
2021/06/04 00:11:06;;;;;;;18.50;12.27;;;11.40;98.30;;;;;;4997395;28;20230;-82
2021/06/04 00:13:37;;;;;;;19.47;13.73;;;11.30;98.10;;;;;;5003536;28;20228;-82
2021/06/04 00:16:10;;;;;;;19.30;12.87;;;11.30;99.30;;;;;;4993382;28;20604;-82
2021/06/04 00:18:42;;;;;;;21.30;13.23;;;11.30;99.90;;;;;;4994739;28;20207;-85
2021/06/04 00:21:13;;;;;;;18.40;13.50;;;11.30;99.90;;;;;;5001376;28;20219;-84
2021/06/04 00:23:42;;;;;;;22.17;13.43;;;11.30;99.90;;;;;;4990762;28;20285;-84
2021/06/04 00:26:11;;;;;;;21.23;13.10;;;11.30;99.90;;;;;;4992372;28;20205;-82
2021/06/04 00:28:40;;;;;;;20.50;13.50;;;11.30;99.90;;;;;;4988251;28;20266;-82
2021/06/04 00:31:09;;;;;;;20.20;13.80;;;11.20;99.90;;;;;;4996098;28;20619;-82
2021/06/04 00:33:38;;;;;;;18.80;12.60;;;11.20;99.90;;;;;;4995253;28;20335;-85
2021/06/04 00:36:06;;;;;;;23.60;13.53;;;11.10;99.90;;;;;;4990830;28;20199;-82
2021/06/04 00:38:36;;;;;;;15.93;12.57;;;11.10;99.90;;;;;;4995867;28;20662;-83
2021/06/04 00:41:15;;;;;;;19.00;13.53;;;11.10;99.90;;;;;;4994105;28;20203;-84
2021/06/04 00:43:48;;;;;;;19.90;13.23;;;11.20;99.90;;;;;;4998280;28;20690;-84
2021/06/04 00:46:19;;;;;;;19.20;14.07;;;11.20;99.90;;;;;;5010265;28;20204;-85
2021/06/04 00:48:48;;;;;;;18.00;14.13;;;11.20;99.90;;;;;;4997846;28;20200;-83
2021/06/04 00:51:19;;;;;;;17.57;13.33;;;11.10;99.90;;;;;;5002874;28;20204;-84
2021/06/04 00:53:50;;;;;;;19.73;13.20;;;11.20;99.90;;;;;;4997061;28;20396;-87
2021/06/04 00:56:19;;;;;;;15.70;12.73;;;11.00;99.90;;;;;;4996361;28;20207;-82
2021/06/04 00:58:48;;;;;;;17.13;13.00;;;10.90;99.90;;;;;;4994243;28;20485;-85
2021/06/04 01:01:21;;;;;;;18.17;13.53;;;10.90;99.90;;;;;;4999265;28;20705;-83
2021/06/04 01:03:52;;;;;;;18.80;12.67;;;10.80;99.90;;;;;;4990000;28;20220;-83
2021/06/04 01:06:30;;;;;;;16.90;13.20;;;10.90;99.90;;;;;;4990452;28;20701;-82
2021/06/04 01:09:25;;;;;;;19.00;12.40;;;10.80;99.90;;;;;;5014622;28;20207;-84
2021/06/04 01:12:14;;;;;;;19.20;14.07;;;10.80;99.90;;;;;;5011675;28;20285;-83
2021/06/04 01:14:48;;;;;;;20.93;14.20;;;10.80;99.90;;;;;;4997540;28;20208;-84
2021/06/04 01:17:26;;;;;;;19.87;13.53;;;10.70;99.90;;;;;;5005215;28;20216;-83
2021/06/04 01:20:01;;;;;;;17.37;12.83;;;10.70;99.90;;;;;;4998140;28;20742;-83
2021/06/04 01:22:51;;;;;;;22.43;13.80;;;10.80;99.90;;;;;;4996001;28;20242;-83
2021/06/04 01:25:33;;;;;;;18.27;13.87;;;10.70;99.90;;;;;;5000308;28;20212;-83
2021/06/04 01:28:10;;;;;;;19.50;14.47;;;10.70;99.90;;;;;;4990751;28;20208;-83
2021/06/04 01:30:43;;;;;;;17.00;13.10;;;10.70;99.90;;;;;;4987899;28;20204;-81
2021/06/04 01:33:16;;;;;;;20.40;13.77;;;10.70;99.90;;;;;;4996623;28;20235;-81
2021/06/04 01:35:48;;;;;;;16.07;13.20;;;10.70;99.90;;;;;;4998993;28;20219;-82
2021/06/04 01:38:20;;;;;;;17.27;13.47;;;10.50;99.90;;;;;;4997160;28;20562;-82
2021/06/04 01:40:51;;;;;;;17.80;13.90;;;10.50;99.90;;;;;;4975999;28;20247;-84
2021/06/04 01:43:23;;;;;;;19.73;13.93;;;10.50;99.90;;;;;;4998998;28;20654;-85
2021/06/04 01:45:55;;;;;;;18.97;14.90;;;10.50;99.90;;;;;;4993063;28;20554;-85
2021/06/04 01:48:26;;;;;;;20.90;14.23;;;10.40;99.90;;;;;;4999713;28;20212;-82
2021/06/04 01:50:58;;;;;;;16.77;13.87;;;10.40;99.90;;;;;;5001705;28;20229;-80
2021/06/04 01:53:37;;;;;;;17.43;14.87;;;10.50;99.90;;;;;;5014862;28;20230;-83
2021/06/04 01:56:11;;;;;;;18.93;14.40;;;10.40;99.90;;;;;;5002900;28;20459;-83
2021/06/04 01:58:45;;;;;;;17.27;13.63;;;10.50;99.90;;;;;;4998594;28;20207;-82
2021/06/04 02:01:17;;;;;;;21.37;13.93;;;10.50;99.90;;;;;;5001066;28;20204;-81
2021/06/04 02:03:45;;;;;;;17.50;14.30;;;10.40;99.90;;;;;;4998320;28;20196;-82
2021/06/04 02:06:13;;;;;;;17.87;14.10;;;10.40;99.90;;;;;;4994933;28;20212;-82
2021/06/04 02:08:45;;;;;;;16.47;13.47;;;10.40;99.90;;;;;;5001782;28;20207;-83
2021/06/04 02:11:18;;;;;;;18.03;14.60;;;10.40;99.90;;;;;;5000214;28;20231;-82
2021/06/04 02:13:49;;;;;;;19.40;14.80;;;10.30;99.90;;;;;;5001449;28;20479;-83
2021/06/04 02:16:38;;;;;;;18.17;14.30;;;10.20;99.90;;;;;;5002521;28;20481;-86
2021/06/04 02:19:19;;;;;;;19.50;14.03;;;10.20;99.90;;;;;;4996070;28;20263;-81
2021/06/04 02:21:57;;;;;;;20.63;14.87;;;10.00;99.90;;;;;;5003676;28;20230;-82
2021/06/04 02:24:32;;;;;;;18.23;14.07;;;10.10;99.90;;;;;;5002759;28;20196;-81
2021/06/04 02:27:07;;;;;;;18.80;14.13;;;10.20;99.90;;;;;;5001586;28;20245;-83
2021/06/04 02:29:41;;;;;;;20.97;14.77;;;10.30;99.90;;;;;;5003409;28;20198;-83
2021/06/04 02:32:18;;;;;;;21.33;15.17;;;10.30;99.90;;;;;;4999923;28;20226;-80
2021/06/04 02:34:52;;;;;;;19.90;14.90;;;10.40;99.90;;;;;;5000804;28;20728;-82
2021/06/04 02:37:25;;;;;;;20.00;15.10;;;10.30;99.90;;;;;;4990528;28;20645;-83
2021/06/04 02:39:57;;;;;;;19.50;14.30;;;10.30;99.90;;;;;;4996018;28;20664;-83
2021/06/04 02:42:35;;;;;;;17.83;14.47;;;10.40;99.90;;;;;;4999152;28;20226;-82
2021/06/04 02:45:10;;;;;;;20.53;16.30;;;10.40;99.90;;;;;;4998872;28;20200;-83
2021/06/04 02:47:42;;;;;;;24.70;17.90;;;10.40;99.90;;;;;;5002800;28;20211;-82
2021/06/04 02:50:16;;;;;;;23.00;19.53;;;10.40;99.90;;;;;;4997082;28;20208;-81
2021/06/04 02:52:46;;;;;;;24.70;20.10;;;10.50;99.90;;;;;;5003095;28;20584;-81
2021/06/04 02:55:19;;;;;;;24.00;19.13;;;10.50;99.90;;;;;;5002799;28;20193;-82
2021/06/04 02:57:49;;;;;;;27.20;22.27;;;10.50;99.90;;;;;;5012116;28;20214;-83
2021/06/04 03:00:23;;;;;;;26.97;21.97;;;10.70;99.90;;;;;;5008220;28;20203;-82
2021/06/04 03:02:52;;;;;;;32.20;24.27;;;10.60;99.90;;;;;;5015246;28;20212;-85
2021/06/04 03:05:24;;;;;;;27.87;23.30;;;10.70;99.90;;;;;;5013975;28;20194;-80
2021/06/04 03:07:53;;;;;;;25.97;21.37;;;10.80;99.90;;;;;;5000360;28;20207;-84
2021/06/04 03:10:26;;;;;;;23.83;20.33;;;11.10;99.90;;;;;;5004270;28;20212;-82
2021/06/04 03:12:56;;;;;;;24.93;20.23;;;10.90;99.90;;;;;;5002803;28;20208;-83
2021/06/04 03:15:30;;;;;;;28.13;21.33;;;11.00;99.90;;;;;;5015606;28;20197;-82
2021/06/04 03:17:59;;;;;;;25.10;19.90;;;11.20;99.90;;;;;;5016208;28;20211;-86
2021/06/04 03:20:31;;;;;;;21.70;17.97;;;11.20;99.90;;;;;;5009007;28;20216;-82
2021/06/04 03:22:59;;;;;;;24.57;19.67;;;11.30;99.90;;;;;;5010315;28;20204;-83
2021/06/04 03:25:32;;;;;;;24.17;18.33;;;11.40;99.90;;;;;;5002893;28;20322;-82
2021/06/04 03:28:03;;;;;;;22.83;17.67;;;11.60;99.90;;;;;;4998559;28;20206;-82
2021/06/04 03:30:35;;;;;;;24.37;17.77;;;11.60;99.90;;;;;;5005398;28;20204;-83
2021/06/04 03:33:03;;;;;;;21.37;17.30;;;11.80;99.90;;;;;;5009495;28;20416;-83
2021/06/04 03:35:31;;;;;;;21.50;16.17;;;11.80;99.90;;;;;;5014479;28;20234;-83
2021/06/04 03:38:01;;;;;;;19.40;16.07;;;11.90;99.90;;;;;;5001804;28;20204;-84
2021/06/04 03:40:31;;;;;;;18.80;15.93;;;12.00;99.90;;;;;;4995327;28;20286;-83
2021/06/04 03:43:04;;;;;;;22.80;17.27;;;12.10;99.90;;;;;;4996888;28;20629;-84
2021/06/04 03:45:35;;;;;;;21.00;16.60;;;12.10;99.90;;;;;;4991364;28;20566;-82
2021/06/04 03:48:04;;;;;;;21.23;17.37;;;12.20;99.90;;;;;;4988418;28;20204;-82
2021/06/04 03:50:32;;;;;;;21.97;18.00;;;12.40;99.90;;;;;;4996989;28;20283;-82
2021/06/04 03:53:00;;;;;;;25.47;18.30;;;12.50;99.90;;;;;;4995976;28;20223;-83
2021/06/04 03:55:29;;;;;;;21.30;16.83;;;12.60;99.90;;;;;;4991769;28;20230;-83
2021/06/04 03:57:57;;;;;;;23.80;17.03;;;12.80;98.40;;;;;;4994086;28;20229;-84
2021/06/04 04:00:32;;;;;;;22.47;15.40;;;13.00;97.10;;;;;;4995364;28;20211;-82
2021/06/04 04:03:01;;;;;;;18.60;15.93;;;13.10;96.40;;;;;;4992723;28;20457;-83
2021/06/04 04:05:31;;;;;;;22.83;16.67;;;13.20;95.70;;;;;;4997706;28;20700;-82
2021/06/04 04:08:00;;;;;;;23.50;17.37;;;13.40;94.50;;;;;;4992895;28;20231;-81
2021/06/04 04:10:28;;;;;;;19.37;16.83;;;13.50;93.30;;;;;;4989522;28;20257;-82
2021/06/04 04:12:57;;;;;;;21.00;17.23;;;13.60;93.10;;;;;;5006254;28;20212;-84
2021/06/04 04:15:28;;;;;;;19.47;16.33;;;13.70;92.50;;;;;;4990584;28;20212;-82
2021/06/04 04:17:58;;;;;;;22.57;15.80;;;13.90;92.70;;;;;;4993625;28;20642;-82
2021/06/04 04:20:29;;;;;;;22.17;16.30;;;14.10;92.60;;;;;;4989820;28;20321;-81
2021/06/04 04:22:58;;;;;;;21.33;16.00;;;14.20;92.10;;;;;;4997260;28;20200;-84
2021/06/04 04:25:28;;;;;;;19.20;16.03;;;14.30;92.00;;;;;;4987390;28;20199;-83
2021/06/04 04:27:57;;;;;;;20.97;15.87;;;14.40;91.40;;;;;;4989224;28;20203;-83
2021/06/04 04:30:27;;;;;;;20.87;16.10;;;14.60;90.50;;;;;;4987747;28;20208;-82
2021/06/04 04:32:55;;;;;;;16.50;14.57;;;14.80;90.40;;;;;;4989524;28;20204;-82
2021/06/04 04:35:27;;;;;;;14.30;12.80;;;15.00;90.00;;;;;;4987899;28;20220;-82
2021/06/04 04:37:55;;;;;;;23.13;13.13;;;15.10;87.50;;;;;;4990073;28;20741;-83
2021/06/04 04:40:25;;;;;;;14.93;12.77;;;15.20;87.80;;;;;;4998330;28;20706;-82
2021/06/04 04:42:54;;;;;;;15.30;12.33;;;15.40;87.80;;;;;;5002003;28;20208;-83
2021/06/04 04:45:25;;;;;;;17.97;14.03;;;15.80;87.70;;;;;;4992340;28;20200;-82
2021/06/04 04:47:55;;;;;;;15.07;11.87;;;16.00;86.00;;;;;;4993228;28;20211;-82
2021/06/04 04:50:25;;;;;;;13.33;11.17;;;16.10;84.70;;;;;;5001490;28;20226;-85
2021/06/04 04:52:55;;;;;;;12.83;11.27;;;16.30;84.20;;;;;;5010784;28;20381;-83
2021/06/04 04:55:27;;;;;;;13.33;11.50;;;16.40;84.00;;;;;;5006531;28;20369;-81
2021/06/04 04:57:55;;;;;;;15.03;10.93;;;16.70;84.10;;;;;;4995593;28;20280;-81
2021/06/04 05:00:26;;;;;;;18.53;12.67;;;16.80;83.40;;;;;;4986142;28;20247;-84
2021/06/04 05:02:57;;;;;;;15.53;11.53;;;16.80;83.40;;;;;;4995028;28;20200;-83
2021/06/04 05:05:28;;;;;;;15.13;11.87;;;16.90;83.50;;;;;;4988253;28;20246;-81
2021/06/04 05:07:56;;;;;;;13.80;11.47;;;17.00;82.90;;;;;;4991600;28;20215;-82
2021/06/04 05:10:24;;;;;;;14.03;11.50;;;17.10;83.00;;;;;;4988582;28;20255;-82
2021/06/04 05:12:53;;;;;;;17.70;11.90;;;17.30;82.60;;;;;;4999376;28;20282;-82
2021/06/04 05:15:27;;;;;;;14.00;11.40;;;17.40;82.80;;;;;;4994580;28;20219;-83
2021/06/04 05:17:57;;;;;;;14.27;11.53;;;17.50;82.50;;;;;;5000298;28;20216;-83
2021/06/04 05:20:26;;;;;;;18.33;11.50;;;17.60;82.20;;;;;;5007724;28;20323;-83
2021/06/04 05:22:56;;;;;;;14.87;10.27;;;17.70;82.50;;;;;;4997370;28;20245;-82
2021/06/04 05:25:29;;;;;;;13.37;10.10;;;17.70;82.10;;;;;;4992784;28;20196;-81
2021/06/04 05:27:57;;;;;;;14.23;11.23;;;17.60;81.90;;;;;;4992285;28;20610;-82
2021/06/04 05:30:28;;;;;;;12.37;9.17;;;17.80;82.10;;;;;;4993991;28;20644;-82
2021/06/04 05:32:58;;;;;;;12.40;9.13;;;17.90;81.70;;;;;;4988726;28;20208;-83
2021/06/04 05:35:29;;;;;;;13.80;9.53;;;17.90;81.80;;;;;;4991428;28;20358;-85
2021/06/04 05:37:58;;;;;;;12.50;9.00;;;17.90;81.70;;;;;;4988728;28;20204;-81
2021/06/04 05:40:29;;;;;;;12.70;9.13;;;18.00;81.90;;;;;;4985806;28;20815;-83
2021/06/04 05:42:58;;;;;;;10.70;8.87;;;18.20;81.80;;;;;;4990135;28;20262;-81
2021/06/04 05:45:30;;;;;;;12.20;8.63;;;18.20;81.60;;;;;;4984927;28;20493;-84
2021/06/04 05:48:00;;;;;;;10.47;8.60;;;18.40;81.50;;;;;;4995123;28;20669;-83
2021/06/04 05:50:32;;;;;;;10.13;9.13;;;18.50;81.20;;;;;;4994610;28;20204;-82
2021/06/04 05:53:00;;;;;;;11.83;8.27;;;18.70;80.90;;;;;;5002297;28;20262;-84
2021/06/04 05:55:30;;;;;;;9.53;7.70;;;18.90;80.90;;;;;;5008412;28;20219;-81
2021/06/04 05:57:59;;;;;;;9.73;8.10;;;19.00;80.20;;;;;;5006254;28;20231;-84
2021/06/04 06:00:30;;;;;;;10.73;7.97;;;19.00;80.60;;;;;;4992157;28;20366;-83
2021/06/04 06:03:00;;;;;;;9.27;7.77;;;19.10;80.00;;;;;;4990991;28;20204;-84
2021/06/04 06:05:28;;;;;;;9.00;7.17;;;19.40;79.70;;;;;;4988748;28;20663;-83
2021/06/04 06:07:56;;;;;;;11.73;7.87;;;19.50;80.00;;;;;;4999373;28;20216;-82
2021/06/04 06:10:26;;;;;;;9.53;7.60;;;19.60;79.40;;;;;;4998308;28;20203;-87
2021/06/04 06:12:55;;;;;;;9.80;8.03;;;19.70;79.60;;;;;;4995207;28;20721;-84
2021/06/04 06:15:26;;;;;;;8.37;7.47;;;19.90;79.50;;;;;;4991330;28;20984;-83
2021/06/04 06:17:56;;;;;;;9.13;7.93;;;20.00;79.00;;;;;;5002525;28;20207;-84
2021/06/04 06:20:34;;;;;;;8.83;7.93;;;20.10;79.10;;;;;;4994987;28;20212;-82
2021/06/04 06:23:02;;;;;;;10.43;7.43;;;20.20;78.80;;;;;;4995240;28;20210;-84
2021/06/04 06:25:34;;;;;;;11.13;7.83;;;20.40;79.00;;;;;;4998012;28;20258;-82
2021/06/04 06:28:04;;;;;;;12.40;8.10;;;20.50;78.70;;;;;;4998756;28;20573;-84
2021/06/04 06:30:33;;;;;;;8.50;7.60;;;20.70;78.40;;;;;;4993339;28;21307;-83
2021/06/04 06:33:02;;;;;;;11.83;7.63;;;20.80;78.10;;;;;;4996892;28;20200;-83
2021/06/04 06:35:35;;;;;;;12.43;7.20;;;21.00;78.60;;;;;;4996361;28;20211;-83
2021/06/04 06:38:04;;;;;;;8.13;7.40;;;21.00;77.80;;;;;;5006845;28;20241;-84
2021/06/04 06:40:32;;;;;;;9.40;7.23;;;21.20;77.60;;;;;;4987891;28;20204;-83
2021/06/04 06:43:01;;;;;;;9.57;7.50;;;21.40;77.60;;;;;;4995524;28;20211;-82
2021/06/04 06:45:32;;;;;;;13.43;7.33;;;21.40;76.80;;;;;;4992179;28;20211;-85
2021/06/04 06:48:00;;;;;;;14.83;7.67;;;21.50;76.60;;;;;;5003800;28;20302;-82
2021/06/04 06:50:30;;;;;;;14.57;7.17;;;21.70;76.80;;;;;;4994723;28;20660;-84
2021/06/04 06:53:06;;;;;;;8.98;6.70;;;21.90;75.70;;;;;;4992418;28;20204;-84
2021/06/04 06:55:36;;;;;;;9.02;6.35;;;22.00;75.00;;;;;;4992425;28;20265;-82
2021/06/04 06:58:04;;;;;;;8.27;6.97;;;22.10;74.70;;;;;;4984100;28;20196;-83
2021/06/04 07:00:36;;;;;;;8.73;5.97;;;22.20;74.70;;;;;;4988014;28;20285;-82
2021/06/04 07:03:06;;;;;;;8.40;6.40;;;22.20;74.30;;;;;;4992671;28;20666;-84
2021/06/04 07:05:36;;;;;;;9.48;6.43;;;22.40;73.40;;;;;;4989467;28;20265;-82
2021/06/04 07:08:06;;;;;;;13.02;6.53;;;22.50;73.20;;;;;;4989467;28;20219;-84
2021/06/04 07:10:36;;;;;;;9.88;6.35;;;22.60;73.00;;;;;;4989110;28;20208;-82
2021/06/04 07:13:08;;;;;;;8.30;5.75;;;22.90;73.50;;;;;;4991496;28;20303;-83
2021/06/04 07:15:36;;;;;;;7.40;5.65;;;23.00;72.60;;;;;;4993468;28;20231;-83
2021/06/04 07:18:06;;;;;;;9.35;6.38;;;23.10;71.80;;;;;;4998457;28;20444;-82
2021/06/04 07:20:36;;;;;;;6.53;5.50;;;23.10;71.60;;;;;;5010636;28;20215;-84
2021/06/04 07:23:09;;;;;;;5.22;4.40;;;23.10;70.40;;;;;;5001554;28;20210;-86
2021/06/04 07:25:40;;;;;;;10.40;5.47;;;23.20;69.80;;;;;;4995106;28;20257;-84
2021/06/04 07:28:11;;;;;;;7.22;5.05;;;23.20;68.30;;;;;;4994155;28;20203;-84
2021/06/04 07:30:42;;;;;;;6.43;4.60;;;23.40;67.00;;;;;;5000691;28;20199;-84
2021/06/04 07:33:13;;;;;;;7.45;4.75;;;23.70;66.50;;;;;;5000285;28;20204;-83
2021/06/04 07:35:42;;;;;;;6.93;4.78;;;23.70;65.90;;;;;;5009028;28;20214;-84
2021/06/04 07:38:12;;;;;;;9.52;5.20;;;23.80;67.20;;;;;;5002603;28;20210;-82
2021/06/04 07:40:41;;;;;;;5.75;4.03;;;23.80;64.80;;;;;;5001009;28;20215;-85
2021/06/04 07:43:13;;;;;;;6.30;4.60;;;24.00;64.00;;;;;;5010814;28;20192;-83
2021/06/04 07:45:44;;;;;;;6.28;4.07;;;23.90;62.60;;;;;;5015312;28;20303;-82
2021/06/04 07:48:14;;;;;;;8.23;3.97;;;24.00;63.10;;;;;;5015080;28;20191;-84
2021/06/04 07:50:44;;;;;;;3.78;3.33;;;24.00;62.30;;;;;;5014139;28;20196;-83
2021/06/04 07:53:17;;;;;;;5.32;3.70;;;23.80;59.90;;;;;;5015124;28;20435;-83
2021/06/04 07:55:47;;;;;;;4.80;3.60;;;23.80;60.80;;;;;;5016180;28;20520;-81
2021/06/04 07:58:16;;;;;;;4.72;3.90;;;23.60;60.40;;;;;;5010673;28;20400;-81
2021/06/04 08:00:44;;;;;;;9.88;3.83;;;23.60;60.00;;;;;;5013235;28;20214;-85
2021/06/04 08:03:17;;;;;;;6.40;3.75;;;23.70;60.30;;;;;;5014706;28;20203;-84
2021/06/04 08:05:46;;;;;;;5.82;3.80;;;23.90;59.80;;;;;;5007531;28;20245;-83
2021/06/04 08:08:16;;;;;;;3.88;3.40;;;24.10;61.20;;;;;;5013387;28;20199;-81
2021/06/04 08:10:45;;;;;;;5.65;4.10;;;24.30;60.90;;;;;;5013173;28;20200;-82
2021/06/04 08:13:15;;;;;;;4.03;3.53;;;24.40;60.10;;;;;;5013243;28;20411;-82
2021/06/04 08:15:49;;;;;;;3.72;3.38;;;24.50;59.70;;;;;;4995840;28;20423;-83
2021/06/04 08:18:19;;;;;;;3.72;3.40;;;24.60;57.70;;;;;;4997040;28;20199;-84
2021/06/04 08:20:49;;;;;;;4.78;3.30;;;24.70;58.00;;;;;;5010799;28;20503;-83
2021/06/04 08:23:23;;;;;;;5.63;3.30;;;24.60;55.40;;;;;;4996010;28;20209;-84
2021/06/04 08:25:57;;;;;;;4.15;3.40;;;24.60;54.80;;;;;;4991847;28;20559;-82
2021/06/04 08:28:28;;;;;;;4.80;3.10;;;24.60;56.40;;;;;;4994060;28;20195;-83
2021/06/04 08:30:58;;;;;;;5.38;3.30;;;24.50;53.50;;;;;;4992254;28;20208;-84
2021/06/04 08:33:28;;;;;;;4.40;3.25;;;24.40;55.30;;;;;;4999794;28;20279;-86
2021/06/04 08:35:57;;;;;;;4.45;3.50;;;24.50;55.50;;;;;;4987831;28;20690;-83
2021/06/04 08:38:29;;;;;;;6.18;3.42;;;24.50;54.30;;;;;;4989134;28;20204;-84
2021/06/04 08:41:02;;;;;;;3.97;3.33;;;24.50;54.50;;;;;;4991827;28;20294;-84
2021/06/04 08:43:42;;;;;;;4.75;3.58;;;24.30;54.00;;;;;;5005008;28;20729;-82
2021/06/04 08:46:17;;;;;;;3.95;3.60;;;24.40;54.30;;;;;;4990782;28;21208;-83
2021/06/04 08:48:50;;;;;;;5.90;3.55;;;24.60;53.90;;;;;;4987476;28;20210;-82
2021/06/04 08:51:26;;;;;;;4.15;3.25;;;24.60;52.50;;;;;;4997236;28;20223;-84
2021/06/04 08:54:18;;;;;;;4.00;3.60;;;24.70;53.40;;;;;;4990606;28;20281;-87
2021/06/04 08:56:53;;;;;;;5.97;3.60;;;25.00;55.20;;;;;;4989310;28;20235;-82
2021/06/04 08:59:23;;;;;;;4.03;3.45;;;25.20;53.50;;;;;;4998605;28;20219;-84
2021/06/04 09:01:55;;;;;;;6.78;3.60;;;25.20;53.40;;;;;;5012583;28;20621;-83
2021/06/04 09:04:28;;;;;;;4.30;3.30;;;25.30;51.70;;;;;;5012049;28;20203;-84
2021/06/04 09:07:01;;;;;;;3.45;2.83;;;25.30;50.20;;;;;;5007391;28;20200;-85
2021/06/04 09:09:36;;;;;;;4.25;2.80;;;25.20;49.50;;;;;;5015371;28;20204;-82
2021/06/04 09:12:11;;;;;;;3.13;2.92;;;25.20;47.80;;;;;;5012575;28;20183;-83
2021/06/04 09:14:39;;;;;;;3.40;3.10;;;25.30;49.60;;;;;;4997127;28;20221;-85
2021/06/04 09:17:15;;;;;;;4.18;3.40;;;25.30;48.80;;;;;;5006835;28;20258;-83
2021/06/04 09:19:56;;;;;;;3.40;3.10;;;25.50;50.10;;;;;;5013035;28;20203;-84
2021/06/04 09:22:29;;;;;;;3.47;3.08;;;25.50;50.20;;;;;;5017653;28;20180;-83
2021/06/04 09:24:59;;;;;;;3.67;3.17;;;25.10;49.70;;;;;;5014244;28;20212;-83
2021/06/04 09:27:32;;;;;;;5.97;3.38;;;25.00;47.70;;;;;;5019241;28;20232;-83
2021/06/04 09:30:10;;;;;;;3.92;3.10;;;25.00;47.60;;;;;;5012650;28;21073;-84
2021/06/04 09:32:40;;;;;;;4.28;3.13;;;25.00;48.40;;;;;;5009064;28;20209;-82
2021/06/04 09:35:14;;;;;;;6.00;3.28;;;25.00;49.20;;;;;;4996193;28;20231;-82
2021/06/04 09:37:43;;;;;;;4.03;3.00;;;25.00;48.00;;;;;;4994714;28;20214;-83
2021/06/04 09:40:26;;;;;;;4.97;3.40;;;24.90;47.50;;;;;;4990254;28;20219;-85
2021/06/04 09:42:57;;;;;;;3.67;3.30;;;25.10;49.40;;;;;;4993796;28;20227;-83
2021/06/04 09:45:30;;;;;;;3.92;2.83;;;25.30;48.30;;;;;;5004286;28;20201;-83
2021/06/04 09:48:05;;;;;;;4.85;2.92;;;25.40;48.20;;;;;;5014609;28;20230;-85
2021/06/04 09:50:38;;;;;;;4.90;3.28;;;25.60;49.20;;;;;;5015229;28;20211;-85
2021/06/04 09:53:22;;;;;;;3.60;3.10;;;25.80;47.80;;;;;;4999004;28;20196;-83
2021/06/04 09:56:11;;;;;;;5.32;3.15;;;25.90;47.50;;;;;;4993924;28;20316;-84
2021/06/04 09:58:49;;;;;;;3.20;2.90;;;26.20;48.10;;;;;;5003007;28;20200;-83
2021/06/04 10:01:19;;;;;;;4.30;3.10;;;26.50;47.40;;;;;;5004605;28;20218;-84
2021/06/04 10:03:57;;;;;;;2.95;2.67;;;26.30;45.90;;;;;;5007650;28;20483;-84
2021/06/04 10:06:46;;;;;;;3.80;2.53;;;26.10;46.40;;;;;;5006979;28;20199;-82
2021/06/04 10:09:27;;;;;;;4.18;2.80;;;26.00;44.70;;;;;;5007092;28;20201;-82
2021/06/04 10:12:03;;;;;;;2.60;2.40;;;26.20;45.30;;;;;;5004950;28;20208;-84
2021/06/04 10:14:51;;;;;;;3.63;2.67;;;26.20;44.40;;;;;;4998840;28;20200;-84
2021/06/04 10:17:58;;;;;;;5.75;3.00;;;26.40;46.50;;;;;;5017052;28;20611;-83
2021/06/04 10:20:37;;;;;;;3.70;2.83;;;26.40;46.50;;;;;;5001554;28;20208;-84
2021/06/04 10:23:10;;;;;;;3.60;2.95;;;26.60;46.40;;;;;;5001285;28;20212;-82
2021/06/04 10:25:51;;;;;;;4.57;3.05;;;26.50;44.80;;;;;;5002112;28;20654;-82
2021/06/04 10:28:43;;;;;;;3.58;3.00;;;26.40;45.50;;;;;;5001523;28;20330;-84
2021/06/04 10:31:35;;;;;;;3.40;3.10;;;26.30;44.70;;;;;;5014218;28;20223;-85
2021/06/04 10:34:15;;;;;;;6.05;3.20;;;26.20;45.70;;;;;;4992940;28;20393;-83
2021/06/04 10:36:48;;;;;;;3.22;2.92;;;26.10;46.40;;;;;;4994159;28;20238;-83
2021/06/04 10:39:20;;;;;;;5.53;2.92;;;26.00;45.10;;;;;;4992195;28;20318;-83
2021/06/04 10:41:56;;;;;;;4.05;2.95;;;25.80;45.90;;;;;;4978923;28;20208;-86
2021/06/04 10:44:35;;;;;;;8.10;3.25;;;25.80;46.70;;;;;;5005621;28;20207;-84
2021/06/04 10:47:10;;;;;;;4.20;2.75;;;25.70;45.60;;;;;;5001162;28;20203;-84
2021/06/04 10:49:48;;;;;;;3.05;2.60;;;25.60;44.20;;;;;;4994603;28;20207;-83
2021/06/04 10:52:23;;;;;;;2.70;2.50;;;25.50;42.90;;;;;;4994938;28;20235;-82
2021/06/04 10:55:02;;;;;;;4.13;2.95;;;25.40;44.10;;;;;;5004908;28;20409;-83
2021/06/04 10:57:38;;;;;;;3.00;2.78;;;25.30;42.90;;;;;;5015338;28;20639;-82
2021/06/04 11:00:13;;;;;;;2.65;2.22;;;25.40;43.80;;;;;;5003704;28;20680;-84
2021/06/04 11:02:47;;;;;;;3.13;2.83;;;25.50;42.90;;;;;;5006187;28;20211;-82
2021/06/04 11:05:30;;;;;;;3.47;2.40;;;25.40;43.70;;;;;;5007433;28;20627;-82
2021/06/04 11:08:09;;;;;;;4.78;2.90;;;25.30;43.40;;;;;;5001497;28;20665;-83
2021/06/04 11:10:48;;;;;;;3.00;2.58;;;25.20;44.30;;;;;;5003198;28;20678;-83
2021/06/04 11:13:32;;;;;;;3.40;3.10;;;25.20;43.10;;;;;;5000897;28;20203;-82
2021/06/04 11:16:11;;;;;;;2.92;2.65;;;25.30;44.20;;;;;;4999704;28;20232;-87
2021/06/04 11:18:44;;;;;;;6.22;3.10;;;25.30;44.30;;;;;;5008166;28;20239;-84
2021/06/04 11:21:28;;;;;;;3.28;2.97;;;25.30;44.10;;;;;;5001233;28;20239;-82
2021/06/04 11:24:03;;;;;;;5.15;3.03;;;25.30;45.10;;;;;;5000973;28;20210;-84
2021/06/04 11:26:37;;;;;;;3.40;2.75;;;25.50;44.90;;;;;;4997779;28;20557;-83
2021/06/04 11:29:09;;;;;;;3.22;2.70;;;25.60;44.10;;;;;;4996927;28;20223;-84
2021/06/04 11:31:54;;;;;;;3.95;3.40;;;25.50;43.60;;;;;;4997537;28;20203;-84
2021/06/04 11:34:35;;;;;;;3.15;2.85;;;25.40;45.10;;;;;;5012052;28;20200;-81
2021/06/04 11:37:07;;;;;;;3.47;3.10;;;25.30;44.00;;;;;;5017194;28;20220;-83
2021/06/04 11:39:39;;;;;;;5.57;3.30;;;25.30;45.00;;;;;;4999672;28;20203;-82
2021/06/04 11:42:12;;;;;;;6.13;3.28;;;25.30;44.90;;;;;;4995138;28;20223;-83
2021/06/04 11:44:45;;;;;;;4.45;2.88;;;25.30;44.80;;;;;;4994145;28;20208;-83
2021/06/04 11:47:29;;;;;;;3.33;3.03;;;25.30;44.60;;;;;;4997361;28;20332;-84
2021/06/04 11:50:34;;;;;;;3.60;3.20;;;25.30;43.70;;;;;;4978290;28;20643;-85
2021/06/04 11:53:35;;;;;;;3.75;2.90;;;25.40;44.30;;;;;;5009569;28;20288;-85
2021/06/04 11:56:11;;;;;;;3.10;2.90;;;25.50;44.30;;;;;;5003161;28;20233;-85
2021/06/04 11:58:51;;;;;;;4.30;2.90;;;25.40;44.40;;;;;;5007522;28;20261;-81
2021/06/04 12:01:47;;;;;;;3.13;2.83;;;25.30;44.20;;;;;;5009725;28;20461;-83
2021/06/04 12:04:19;;;;;;;4.18;3.17;;;25.40;45.90;;;;;;5001435;28;20200;-84
2021/06/04 12:07:00;;;;;;;4.10;2.88;;;25.60;44.30;;;;;;4998390;28;20227;-83
2021/06/04 12:09:44;;;;;;;2.80;2.60;;;25.80;44.40;;;;;;4995812;28;20204;-82
2021/06/04 12:12:37;;;;;;;3.25;2.88;;;25.90;44.90;;;;;;5000148;28;20706;-83
2021/06/04 12:15:34;;;;;;;2.97;2.67;;;26.10;44.10;;;;;;4993613;28;20199;-82
2021/06/04 12:18:43;;;;;;;3.28;2.92;;;26.10;43.60;;;;;;5002357;28;20238;-85
2021/06/04 12:21:51;;;;;;;4.65;3.08;;;26.20;43.00;;;;;;4991543;28;20456;-82
2021/06/04 12:24:49;;;;;;;3.90;2.80;;;26.20;44.30;;;;;;5000766;28;20402;-82
2021/06/04 12:27:47;;;;;;;3.40;3.10;;;26.50;44.50;;;;;;4995425;28;20203;-81
2021/06/04 12:30:48;;;;;;;3.85;3.20;;;26.50;45.70;;;;;;4962213;28;20207;-86
2021/06/04 12:33:47;;;;;;;6.35;3.60;;;26.40;45.20;;;;;;4999519;28;20203;-83
2021/06/04 12:37:01;;;;;;;4.63;3.30;;;26.20;45.10;;;;;;4981778;28;20254;-84
2021/06/04 12:40:05;;;;;;;5.03;3.38;;;26.30;45.10;;;;;;4997958;28;20203;-82
2021/06/04 12:42:39;;;;;;;3.33;3.03;;;26.50;44.80;;;;;;4988125;28;20215;-84
2021/06/04 12:45:19;;;;;;;7.30;3.15;;;26.70;45.80;;;;;;4995434;28;20210;-84
2021/06/04 12:47:50;;;;;;;4.70;3.33;;;26.70;45.10;;;;;;4994602;28;20210;-83
2021/06/04 12:50:24;;;;;;;4.32;3.92;;;26.50;45.50;;;;;;5008023;28;20698;-83
2021/06/04 12:53:13;;;;;;;6.15;3.38;;;26.20;44.10;;;;;;5012074;28;20191;-83
2021/06/04 12:55:46;;;;;;;6.20;3.20;;;26.10;44.60;;;;;;5001790;28;20222;-81
2021/06/04 12:58:21;;;;;;;4.88;3.40;;;26.10;45.20;;;;;;4977296;28;20631;-83
2021/06/04 13:00:49;;;;;;;3.38;2.92;;;26.40;44.90;;;;;;4992105;28;20205;-84
2021/06/04 13:03:26;;;;;;;3.80;3.35;;;26.20;44.50;;;;;;4991315;28;20272;-83
2021/06/04 13:05:58;;;;;;;4.97;3.65;;;26.30;44.50;;;;;;4998839;28;20661;-81
2021/06/04 13:08:34;;;;;;;4.53;3.63;;;26.70;44.30;;;;;;4991659;28;20211;-83
2021/06/04 13:11:04;;;;;;;4.93;3.63;;;27.20;43.60;;;;;;5009183;28;20190;-83
2021/06/04 13:13:33;;;;;;;3.97;3.40;;;27.60;44.00;;;;;;5015292;28;20390;-83